Time,TemperatureF,DewpointF,PressureIn,WindDirection,WindDirectionDegrees,WindSpeedMPH,WindSpeedGustMPH,Humidity,HourlyPrecipIn,Conditions,Clouds,dailyrainin,SoftwareType,DateUTC
2013-04-10 00:01:00,46.8,44.0,29.98,South,173,5.0,7.0,90,0.00,,,0.00,weatherlink.com 1.10,2013-04-10 04:01:00,
2013-04-10 00:17:00,46.6,44.0,29.96,SSE,162,5.0,8.0,90,0.00,,,0.00,weatherlink.com 1.10,2013-04-10 04:17:00,
2013-04-10 00:31:00,46.6,44.0,29.95,SSE,152,3.0,8.0,90,0.00,,,0.00,weatherlink.com 1.10,2013-04-10 04:31:00,
2013-04-10 00:46:00,46.7,44.0,29.94,SSE,156,5.0,10.0,90,0.00,,,0.00,weatherlink.com 1.10,2013-04-10 04:46:00,
2013-04-10 01:01:00,46.9,44.0,29.93,SSE,158,7.0,9.0,89,0.00,,,0.00,weatherlink.com 1.10,2013-04-10 05:01:00,
2013-04-10 01:16:00,46.8,44.0,29.93,SSE,151,5.0,12.0,89,0.00,,,0.00,weatherlink.com 1.10,2013-04-10 05:16:00,
2013-04-10 01:31:00,46.3,44.0,29.93,South,173,6.0,10.0,90,0.00,,,0.00,weatherlink.com 1.10,2013-04-10 05:31:00,
2013-04-10 01:47:00,46.0,44.0,29.91,SSW,198,4.0,10.0,91,0.00,,,0.00,weatherlink.com 1.10,2013-04-10 05:47:00,
2013-04-10 02:01:00,46.0,44.0,29.89,SE,135,7.0,11.0,91,0.00,,,0.00,weatherlink.com 1.10,2013-04-10 06:01:00,
2013-04-10 02:17:00,45.9,44.0,29.89,SSW,194,4.0,11.0,92,0.00,,,0.00,weatherlink.com 1.10,2013-04-10 06:17:00,
2013-04-10 02:32:00,45.7,44.0,29.89,WSW,246,1.0,8.0,92,0.00,,,0.00,weatherlink.com 1.10,2013-04-10 06:32:00,
2013-04-10 02:47:00,45.8,44.0,29.88,South,173,5.0,9.0,93,0.00,,,0.00,weatherlink.com 1.10,2013-04-10 06:47:00,
2013-04-10 03:02:00,46.3,44.0,29.88,SE,143,4.0,9.0,92,0.00,,,0.00,weatherlink.com 1.10,2013-04-10 07:02:00,
2013-04-10 03:17:00,46.5,44.0,29.86,SSE,162,7.0,8.0,91,0.00,,,0.00,weatherlink.com 1.10,2013-04-10 07:17:00,
2013-04-10 03:32:00,46.8,44.0,29.86,SSE,167,5.0,11.0,91,0.00,,,0.00,weatherlink.com 1.10,2013-04-10 07:32:00,
2013-04-10 03:47:00,47.0,45.0,29.87,SE,127,6.0,10.0,91,0.00,,,0.00,weatherlink.com 1.10,2013-04-10 07:47:00,
2013-04-10 04:02:00,47.4,45.0,29.89,SE,136,4.0,8.0,90,0.00,,,0.00,weatherlink.com 1.10,2013-04-10 08:02:00,
2013-04-10 04:17:00,47.7,45.0,29.91,NE,50,8.0,8.0,89,0.00,,,0.00,weatherlink.com 1.10,2013-04-10 08:17:00,
2013-04-10 04:32:00,46.3,44.0,29.92,NNE,15,15.0,16.0,91,0.00,,,0.00,weatherlink.com 1.10,2013-04-10 08:32:00,
2013-04-10 04:47:00,46.9,45.0,29.93,NNE,20,15.0,18.0,91,0.01,,,0.01,weatherlink.com 1.10,2013-04-10 08:47:00,
2013-04-10 05:02:00,47.3,45.0,29.94,NNE,19,12.0,18.0,90,0.03,,,0.03,weatherlink.com 1.10,2013-04-10 09:02:00,
2013-04-10 05:17:00,46.1,44.0,29.91,NE,54,10.0,17.0,93,0.06,,,0.06,weatherlink.com 1.10,2013-04-10 09:17:00,
2013-04-10 05:32:00,45.7,44.0,29.88,East,89,12.0,14.0,94,0.07,,,0.07,weatherlink.com 1.10,2013-04-10 09:32:00,
2013-04-10 05:47:00,45.9,44.0,29.85,East,97,12.0,16.0,93,0.06,,,0.07,weatherlink.com 1.10,2013-04-10 09:47:00,
2013-04-10 06:02:00,46.0,44.0,29.82,East,94,11.0,19.0,93,0.06,,,0.09,weatherlink.com 1.10,2013-04-10 10:02:00,
2013-04-10 06:17:00,46.1,44.0,29.81,ESE,120,8.0,23.0,92,0.04,,,0.10,weatherlink.com 1.10,2013-04-10 10:17:00,
2013-04-10 06:32:00,46.0,44.0,29.83,ESE,111,11.0,18.0,93,0.03,,,0.10,weatherlink.com 1.10,2013-04-10 10:32:00,
2013-04-10 06:47:00,46.2,44.0,29.84,SE,135,12.0,13.0,93,0.03,,,0.10,weatherlink.com 1.10,2013-04-10 10:47:00,
2013-04-10 07:02:00,46.5,45.0,29.84,SSE,152,8.0,10.0,93,0.01,,,0.10,weatherlink.com 1.10,2013-04-10 11:02:00,
2013-04-10 07:17:00,47.2,45.0,29.84,SE,143,7.0,12.0,93,0.00,,,0.10,weatherlink.com 1.10,2013-04-10 11:17:00,
2013-04-10 07:32:00,48.0,46.0,29.84,SSE,150,12.0,17.0,92,0.00,,,0.10,weatherlink.com 1.10,2013-04-10 11:32:00,
2013-04-10 07:47:00,48.2,46.0,29.86,ESE,103,8.0,12.0,91,0.00,,,0.10,weatherlink.com 1.10,2013-04-10 11:47:00,
2013-04-10 08:02:00,48.6,46.0,29.86,East,94,6.0,11.0,91,0.00,,,0.10,weatherlink.com 1.10,2013-04-10 12:02:00,
2013-04-10 08:17:00,47.7,45.0,29.87,NNE,25,6.0,6.0,91,0.00,,,0.10,weatherlink.com 1.10,2013-04-10 12:17:00,
2013-04-10 08:32:00,46.4,44.0,29.88,NNE,22,8.0,10.0,92,0.00,,,0.10,weatherlink.com 1.10,2013-04-10 12:32:00,
2013-04-10 08:47:00,46.3,44.0,29.88,NE,49,4.0,6.0,93,0.00,,,0.10,weatherlink.com 1.10,2013-04-10 12:47:00,
2013-04-10 09:02:00,46.2,44.0,29.88,NE,41,6.0,8.0,93,0.00,,,0.10,weatherlink.com 1.10,2013-04-10 13:02:00,
2013-04-10 09:17:00,46.3,44.0,29.87,NE,44,4.0,8.0,93,0.00,,,0.10,weatherlink.com 1.10,2013-04-10 13:17:00,
2013-04-10 09:32:00,46.3,44.0,29.89,NE,35,7.0,8.0,93,0.00,,,0.10,weatherlink.com 1.10,2013-04-10 13:32:00,
2013-04-10 09:47:00,46.7,45.0,29.88,NE,41,10.0,11.0,92,0.00,,,0.10,weatherlink.com 1.10,2013-04-10 13:47:00,
2013-04-10 10:02:00,46.8,45.0,29.88,ENE,60,6.0,10.0,93,0.00,,,0.10,weatherlink.com 1.10,2013-04-10 14:02:00,
2013-04-10 10:17:00,47.0,45.0,29.89,ENE,62,9.0,9.0,91,0.00,,,0.00,weatherlink.com 1.10,2013-04-10 14:17:00,
2013-04-10 10:32:00,47.2,45.0,29.89,ENE,60,5.0,-999.0,92,-99.99,,,0.00,weatherlink.com 1.10,2013-04-10 14:32:00,
2013-04-10 10:47:00,47.2,45.0,29.89,NE,47,9.0,9.0,91,0.00,,,0.00,weatherlink.com 1.10,2013-04-10 14:47:00,
2013-04-10 11:02:00,46.9,45.0,29.89,NE,51,9.0,9.0,92,0.00,,,0.00,weatherlink.com 1.10,2013-04-10 15:02:00,
2013-04-10 11:17:00,47.2,45.0,29.89,ENE,75,10.0,12.0,91,0.00,,,0.00,weatherlink.com 1.10,2013-04-10 15:17:00,
2013-04-10 11:32:00,47.2,45.0,29.90,NE,56,9.0,10.0,91,0.00,,,0.00,weatherlink.com 1.10,2013-04-10 15:32:00,
2013-04-10 11:47:00,47.1,45.0,29.89,ENE,62,9.0,11.0,91,0.00,,,0.00,weatherlink.com 1.10,2013-04-10 15:47:00,
2013-04-10 12:02:00,47.2,45.0,29.90,ENE,61,7.0,9.0,90,0.00,,,0.00,weatherlink.com 1.10,2013-04-10 16:02:00,
2013-04-10 12:17:00,47.4,45.0,29.91,NE,53,8.0,8.0,90,0.00,,,0.00,weatherlink.com 1.10,2013-04-10 16:17:00,
2013-04-10 12:32:00,47.6,45.0,29.92,NE,53,6.0,8.0,91,0.00,,,0.00,weatherlink.com 1.10,2013-04-10 16:32:00,
2013-04-10 12:48:00,48.4,45.0,29.91,ENE,63,7.0,9.0,89,0.00,,,0.00,weatherlink.com 1.10,2013-04-10 16:48:00,
2013-04-10 13:03:00,48.9,46.0,29.91,ENE,62,6.0,10.0,88,0.00,,,0.00,weatherlink.com 1.10,2013-04-10 17:03:00,
2013-04-10 13:18:00,49.5,46.0,29.91,ENE,64,7.0,10.0,88,0.00,,,0.00,weatherlink.com 1.10,2013-04-10 17:18:00,
2013-04-10 13:33:00,48.9,46.0,29.92,ENE,73,9.0,12.0,89,0.00,,,0.00,weatherlink.com 1.10,2013-04-10 17:33:00,
2013-04-10 13:48:00,48.9,46.0,29.92,ENE,69,6.0,13.0,88,0.00,,,0.00,weatherlink.com 1.10,2013-04-10 17:48:00,
2013-04-10 14:03:00,48.7,46.0,29.91,ENE,58,9.0,13.0,89,0.00,,,0.00,weatherlink.com 1.10,2013-04-10 18:03:00,
2013-04-10 14:18:00,48.9,46.0,29.91,ENE,63,11.0,12.0,89,0.00,,,0.00,weatherlink.com 1.10,2013-04-10 18:18:00,
2013-04-10 14:33:00,49.4,46.0,29.91,East,86,8.0,10.0,88,0.00,,,0.00,weatherlink.com 1.10,2013-04-10 18:33:00,
2013-04-10 14:48:00,49.4,46.0,29.91,ENE,61,9.0,11.0,87,0.00,,,0.00,weatherlink.com 1.10,2013-04-10 18:48:00,
2013-04-10 15:03:00,49.4,46.0,29.91,ENE,74,7.0,13.0,87,0.00,,,0.00,weatherlink.com 1.10,2013-04-10 19:03:00,
2013-04-10 15:18:00,49.5,46.0,29.91,East,79,9.0,9.0,87,0.00,,,0.00,weatherlink.com 1.10,2013-04-10 19:18:00,
2013-04-10 15:34:00,48.9,46.0,29.90,ENE,72,10.0,11.0,88,0.00,,,0.00,weatherlink.com 1.10,2013-04-10 19:34:00,
2013-04-10 15:48:00,48.5,45.0,29.89,East,89,9.0,13.0,88,0.00,,,0.00,weatherlink.com 1.10,2013-04-10 19:48:00,
2013-04-10 16:03:00,47.6,45.0,29.89,ESE,117,7.0,11.0,89,0.00,,,0.00,weatherlink.com 1.10,2013-04-10 20:03:00,
2013-04-10 16:33:00,46.3,44.0,29.89,SE,132,10.0,14.0,91,0.00,,,0.00,weatherlink.com 1.10,2013-04-10 20:33:00,
2013-04-10 16:48:00,46.4,44.0,29.88,ESE,118,9.0,12.0,91,0.00,,,0.00,weatherlink.com 1.10,2013-04-10 20:48:00,
2013-04-10 17:03:00,47.5,45.0,29.87,SE,139,5.0,12.0,90,0.00,,,0.00,weatherlink.com 1.10,2013-04-10 21:03:00,
2013-04-10 17:18:00,48.5,45.0,29.88,SSE,153,7.0,11.0,87,0.00,,,0.00,weatherlink.com 1.10,2013-04-10 21:18:00,
2013-04-10 17:34:00,48.5,45.0,29.88,SE,142,6.0,11.0,87,0.00,,,0.00,weatherlink.com 1.10,2013-04-10 21:34:00,
2013-04-10 17:48:00,48.8,45.0,29.88,SE,138,4.0,7.0,86,0.00,,,0.00,weatherlink.com 1.10,2013-04-10 21:48:00,
2013-04-10 18:03:00,49.0,45.0,29.89,SSE,166,3.0,9.0,86,0.00,,,0.00,weatherlink.com 1.10,2013-04-10 22:03:00,
2013-04-10 18:18:00,47.7,45.0,29.90,SSE,158,2.0,9.0,89,0.00,,,0.00,weatherlink.com 1.10,2013-04-10 22:18:00,
2013-04-10 18:33:00,46.3,44.0,29.90,SE,144,7.0,11.0,90,0.00,,,0.00,weatherlink.com 1.10,2013-04-10 22:33:00,
2013-04-10 18:48:00,45.3,43.0,29.90,SSW,195,5.0,10.0,92,0.00,,,0.00,weatherlink.com 1.10,2013-04-10 22:48:00,
2013-04-10 19:03:00,44.5,43.0,29.89,SE,134,6.0,10.0,93,0.00,,,0.00,weatherlink.com 1.10,2013-04-10 23:03:00,
2013-04-10 19:18:00,44.1,43.0,29.89,SSE,162,5.0,8.0,94,0.00,,,0.00,weatherlink.com 1.10,2013-04-10 23:18:00,
2013-04-10 19:33:00,43.9,42.0,29.86,SE,129,4.0,8.0,94,0.00,,,0.00,weatherlink.com 1.10,2013-04-10 23:33:00,
2013-04-10 19:48:00,44.0,43.0,29.83,South,187,7.0,14.0,95,0.00,,,0.00,weatherlink.com 1.10,2013-04-10 23:48:00,
2013-04-10 20:03:00,44.1,43.0,29.87,SSE,167,6.0,11.0,95,0.00,,,0.00,weatherlink.com 1.10,2013-04-11 00:03:00,
2013-04-10 20:18:00,43.9,43.0,29.85,SSE,162,7.0,11.0,95,0.00,,,0.00,weatherlink.com 1.10,2013-04-11 00:18:00,
2013-04-10 20:33:00,43.7,42.0,29.85,SSE,155,4.0,11.0,95,0.00,,,0.00,weatherlink.com 1.10,2013-04-11 00:33:00,
2013-04-10 20:48:00,43.7,43.0,29.85,South,179,4.0,8.0,96,0.00,,,0.00,weatherlink.com 1.10,2013-04-11 00:48:00,
2013-04-10 21:03:00,43.7,43.0,29.85,SE,141,6.0,10.0,96,0.00,,,0.00,weatherlink.com 1.10,2013-04-11 01:03:00,
2013-04-10 21:18:00,43.8,43.0,29.84,SSE,163,6.0,10.0,96,0.00,,,0.00,weatherlink.com 1.10,2013-04-11 01:18:00,
2013-04-10 21:33:00,44.3,44.0,30.00,WNW,297,28.0,28.0,97,0.00,,,0.00,weatherlink.com 1.10,2013-04-11 01:33:00,
2013-04-10 21:48:00,46.0,45.0,29.92,SSE,147,8.0,15.0,96,0.00,,,0.00,weatherlink.com 1.10,2013-04-11 01:48:00,
2013-04-10 22:03:00,45.9,45.0,29.87,SSE,166,4.0,8.0,95,0.01,,,0.01,weatherlink.com 1.10,2013-04-11 02:03:00,
2013-04-10 22:18:00,45.8,45.0,29.85,South,170,8.0,11.0,96,0.02,,,0.02,weatherlink.com 1.10,2013-04-11 02:18:00,
2013-04-10 22:33:00,45.6,45.0,29.83,South,170,5.0,11.0,96,0.02,,,0.02,weatherlink.com 1.10,2013-04-11 02:33:00,
2013-04-10 22:48:00,45.4,44.0,29.82,SE,136,8.0,12.0,96,0.02,,,0.02,weatherlink.com 1.10,2013-04-11 02:48:00,
2013-04-10 23:03:00,45.2,44.0,29.81,SSW,194,6.0,12.0,96,0.02,,,0.03,weatherlink.com 1.10,2013-04-11 03:03:00,
2013-04-10 23:33:00,44.8,44.0,29.82,SE,138,3.0,8.0,96,0.01,,,0.03,weatherlink.com 1.10,2013-04-11 03:33:00,
2013-04-10 23:49:00,44.8,44.0,29.84,SE,141,0.0,5.0,96,0.01,,,0.03,weatherlink.com 1.10,2013-04-11 03:49:00,